Time;durP1;ratioP1;P1;durP2;ratioP2;P2;SDS_P1;SDS_P2;PMS_P1;PMS_P2;Temp;Humidity;BMP_temperature;BMP_pressure;BME280_temperature;BME280_humidity;BME280_pressure;Samples;Min_cycle;Max_cycle;Signal;HPM_P1;HPM_P2
2022/11/07 00:00:17;;;;;;;3.17;2.65;;;;;;;7.63;100.00;100328.47;5009056;28;20172;-45
2022/11/07 00:02:42;;;;;;;3.05;2.47;;;;;;;7.64;100.00;100320.44;5009252;28;20196;-45
2022/11/07 00:05:08;;;;;;;3.70;2.72;;;;;;;7.62;100.00;100321.41;4994962;28;20212;-43
2022/11/07 00:07:33;;;;;;;3.08;2.63;;;;;;;7.63;100.00;100329.38;5009147;28;20638;-44
2022/11/07 00:09:59;;;;;;;3.58;3.08;;;;;;;7.68;100.00;100318.53;5008774;28;20196;-45
2022/11/07 00:12:24;;;;;;;3.20;2.90;;;;;;;7.64;100.00;100320.44;5013615;28;20227;-44
2022/11/07 00:14:50;;;;;;;4.18;2.63;;;;;;;7.63;100.00;100312.47;5008684;28;20204;-44
2022/11/07 00:17:17;;;;;;;3.25;2.88;;;;;;;7.64;100.00;100324.91;5009297;28;20224;-44
2022/11/07 00:19:43;;;;;;;5.15;3.00;;;;;;;7.69;100.00;100327.41;5007590;28;20216;-45
2022/11/07 00:22:08;;;;;;;3.30;3.03;;;;;;;7.68;100.00;100318.53;5012814;28;20231;-45
2022/11/07 00:24:33;;;;;;;3.00;2.80;;;;;;;7.69;100.00;100327.41;5011850;28;20223;-46
2022/11/07 00:26:59;;;;;;;7.20;3.38;;;;;;;7.74;100.00;100323.66;5011516;28;20183;-45
2022/11/07 00:29:25;;;;;;;3.42;2.90;;;;;;;7.77;100.00;100318.22;5012883;28;20179;-44
2022/11/07 00:31:50;;;;;;;4.35;2.75;;;;;;;7.79;100.00;100312.84;5012715;28;20283;-45
2022/11/07 00:34:16;;;;;;;4.00;3.60;;;;;;;7.83;100.00;100296.69;5012622;28;20183;-45
2022/11/07 00:36:41;;;;;;;4.55;2.83;;;;;;;7.87;100.00;100300.13;5012834;28;20212;-47
2022/11/07 00:39:08;;;;;;;5.00;3.47;;;;;;;7.84;100.00;100306.41;5012742;28;20536;-43
2022/11/07 00:41:35;;;;;;;3.45;3.00;;;;;;;7.90;100.00;100305.31;5012752;28;20192;-45
2022/11/07 00:44:00;;;;;;;3.60;3.25;;;;;;;7.90;100.00;100310.66;5008170;28;20642;-47
2022/11/07 00:46:26;;;;;;;4.22;2.95;;;;;;;7.96;100.00;100305.13;5009104;28;20208;-44
2022/11/07 00:48:51;;;;;;;4.18;3.63;;;;;;;7.95;100.00;100318.50;5011300;28;20200;-43
2022/11/07 00:51:23;;;;;;;3.67;3.22;;;;;;;7.94;100.00;100300.75;5012694;28;20203;-44
2022/11/07 00:53:49;;;;;;;3.47;2.75;;;;;;;7.99;100.00;100309.47;5012318;28;20255;-44
2022/11/07 00:56:20;;;;;;;4.53;3.30;;;;;;;7.99;100.00;100305.00;5012299;28;20212;-46
2022/11/07 00:58:46;;;;;;;3.97;3.35;;;;;;;8.05;100.00;100303.91;5012362;28;20181;-47
2022/11/07 01:01:18;;;;;;;4.22;3.33;;;;;;;8.09;100.00;100302.88;5010763;28;20473;-44
2022/11/07 01:06:30;;;;;;;4.82;3.60;;;;;;;8.14;100.00;100303.56;5011234;28;20698;-44
2022/11/07 01:08:56;;;;;;;4.25;3.85;;;;;;;8.22;100.00;100292.59;5012033;28;20181;-45
2022/11/07 01:11:23;;;;;;;3.45;3.15;;;;;;;8.21;100.00;100312.22;5012297;28;20559;-43
2022/11/07 01:13:48;;;;;;;5.05;3.50;;;;;;;8.29;100.00;100301.25;5011378;28;20656;-45
2022/11/07 01:16:14;;;;;;;4.03;3.60;;;;;;;8.29;100.00;100301.25;5012105;28;20240;-45
2022/11/07 01:18:40;;;;;;;5.20;3.53;;;;;;;8.28;100.00;100310.19;5012070;28;20204;-44
2022/11/07 01:21:07;;;;;;;4.40;4.00;;;;;;;8.33;100.00;100294.88;5012058;28;20165;-46
2022/11/07 01:23:33;;;;;;;4.40;4.00;;;;;;;8.39;100.00;100297.31;5010633;28;20562;-43
2022/11/07 01:26:04;;;;;;;5.47;3.85;;;;;;;8.37;100.00;100299.16;5011636;28;20212;-43
2022/11/07 01:28:30;;;;;;;4.47;4.03;;;;;;;8.40;100.00;100297.28;5012043;28;20188;-44
2022/11/07 01:30:55;;;;;;;4.60;3.67;;;;;;;8.43;100.00;100294.50;5011727;28;20305;-44
2022/11/07 01:33:21;;;;;;;4.78;3.88;;;;;;;8.49;100.00;100292.53;5009870;28;20173;-44
2022/11/07 01:35:46;;;;;;;5.72;3.67;;;;;;;8.50;100.00;100286.25;5011730;28;20559;-43
2022/11/07 01:38:12;;;;;;;6.00;3.95;;;;;;;8.44;100.00;100282.03;5010301;28;21078;-44
2022/11/07 01:43:45;;;;;;;6.00;4.00;;;;;;;8.49;100.00;100281.88;5010667;28;20189;-44
2022/11/07 01:46:11;;;;;;;5.00;4.35;;;;;;;8.50;100.00;100284.44;5023562;28;20280;-44
2022/11/07 01:48:38;;;;;;;8.73;4.10;;;;;;;8.54;100.00;100286.06;5011736;28;20273;-45
2022/11/07 01:51:04;;;;;;;4.30;3.90;;;;;;;8.58;100.00;100290.38;5009525;28;20283;-44
2022/11/07 01:53:30;;;;;;;4.72;4.20;;;;;;;8.56;100.00;100281.56;5010975;28;20555;-45
2022/11/07 01:55:56;;;;;;;5.68;4.60;;;;;;;8.56;100.00;100289.56;5010710;28;20287;-44
2022/11/07 01:58:21;;;;;;;6.60;4.38;;;;;;;8.56;100.00;100294.91;5011107;28;20637;-45
2022/11/07 02:00:47;;;;;;;4.93;4.07;;;;;;;8.59;100.00;100291.25;5011502;28;20193;-45
2022/11/07 02:03:18;;;;;;;6.22;4.10;;;;;;;8.66;100.00;100303.44;5011054;28;20329;-43
2022/11/07 02:05:51;;;;;;;7.07;4.28;;;;;;;8.66;100.00;100284.75;5009732;28;20213;-45
2022/11/07 02:08:19;;;;;;;5.18;4.47;;;;;;;8.65;100.00;100291.00;5024677;28;20224;-45
2022/11/07 02:10:44;;;;;;;5.10;4.47;;;;;;;8.68;100.00;100290.00;5009169;28;20597;-43
2022/11/07 02:13:17;;;;;;;4.65;4.22;;;;;;;8.69;100.00;100297.13;5011235;28;20181;-46
2022/11/07 02:15:43;;;;;;;7.53;4.95;;;;;;;8.71;100.00;100295.25;5010679;28;20223;-44
2022/11/07 02:18:09;;;;;;;5.70;4.78;;;;;;;8.73;100.00;100280.03;5010986;28;20177;-42
2022/11/07 02:20:34;;;;;;;5.50;4.70;;;;;;;8.77;100.00;100297.69;5010903;28;20188;-46
2022/11/07 02:23:30;;;;;;;5.38;4.20;;;;;;;8.80;100.00;100297.56;5006568;28;20184;-43
2022/11/07 02:25:55;;;;;;;6.45;4.25;;;;;;;8.81;100.00;100293.94;5004831;28;20225;-43
2022/11/07 02:28:24;;;;;;;6.60;4.80;;;;;;;8.80;100.00;100300.22;5004106;28;20169;-44
2022/11/07 02:30:49;;;;;;;8.18;4.90;;;;;;;8.82;100.00;100299.22;5010608;28;20196;-43
2022/11/07 02:33:21;;;;;;;7.70;4.80;;;;;;;8.80;100.00;100294.88;5010402;28;20177;-44
2022/11/07 02:35:48;;;;;;;7.78;4.88;;;;;;;8.82;100.00;100301.91;5010552;28;20196;-45
2022/11/07 02:38:17;;;;;;;6.72;5.10;;;;;;;8.82;100.00;100288.53;5009344;28;20184;-46
2022/11/07 02:40:46;;;;;;;5.32;4.78;;;;;;;8.88;100.00;100300.81;5009705;28;20165;-44
2022/11/07 02:43:15;;;;;;;7.15;4.60;;;;;;;8.92;100.00;100290.84;5009060;28;20192;-42
2022/11/07 02:45:44;;;;;;;10.27;4.97;;;;;;;8.86;100.00;100289.31;5007689;28;20239;-46
2022/11/07 02:48:09;;;;;;;8.65;5.20;;;;;;;8.85;100.00;100284.88;5010319;28;20638;-45
2022/11/07 02:50:35;;;;;;;6.63;4.88;;;;;;;8.87;100.00;100304.38;5010242;28;20208;-44
2022/11/07 02:53:00;;;;;;;7.35;5.30;;;;;;;8.86;100.00;100271.47;5009979;28;20201;-45
2022/11/07 02:55:26;;;;;;;5.45;4.78;;;;;;;8.91;100.00;100289.13;5007119;28;20204;-44
2022/11/07 02:57:52;;;;;;;8.60;4.72;;;;;;;8.93;100.00;100282.78;5010260;28;20180;-46
2022/11/07 03:00:17;;;;;;;8.60;5.00;;;;;;;8.98;100.00;100291.47;5010386;28;20271;-46
2022/11/07 03:02:45;;;;;;;7.35;4.93;;;;;;;8.90;100.00;100290.94;5010231;28;20211;-44
2022/11/07 03:05:16;;;;;;;7.22;4.65;;;;;;;8.94;100.00;100292.50;5009410;28;20232;-46
2022/11/07 03:07:43;;;;;;;5.95;4.68;;;;;;;8.93;100.00;100296.13;5009968;28;20244;-44
2022/11/07 03:10:10;;;;;;;10.20;4.47;;;;;;;8.94;100.00;100287.16;5010288;28;20180;-46
2022/11/07 03:12:35;;;;;;;7.25;4.78;;;;;;;8.91;100.00;100287.31;5009900;28;20216;-44
2022/11/07 03:15:01;;;;;;;5.38;4.18;;;;;;;8.90;100.00;100295.38;5009390;28;20212;-43
2022/11/07 03:17:26;;;;;;;6.65;4.00;;;;;;;8.90;100.00;100288.25;5009824;28;20195;-45
2022/11/07 03:19:52;;;;;;;8.48;4.32;;;;;;;8.94;100.00;100292.50;5008824;28;20559;-46
2022/11/07 03:22:17;;;;;;;5.70;4.60;;;;;;;8.97;100.00;100281.72;5009749;28;20571;-45
2022/11/07 03:24:42;;;;;;;5.40;4.35;;;;;;;9.00;100.00;100288.75;5009079;28;20193;-44
2022/11/07 03:27:08;;;;;;;8.98;4.35;;;;;;;8.99;100.00;100295.91;5009867;28;20271;-42
2022/11/07 03:29:33;;;;;;;6.80;4.45;;;;;;;9.01;100.00;100299.38;5008821;28;20271;-43
2022/11/07 03:31:59;;;;;;;6.10;4.15;;;;;;;9.05;100.00;100290.31;5009753;28;20230;-44
2022/11/07 03:34:24;;;;;;;11.18;4.10;;;;;;;9.10;100.00;100284.78;5008728;28;20212;-45
2022/11/07 03:36:49;;;;;;;5.28;4.10;;;;;;;9.10;100.00;100289.25;5009410;28;20185;-45
2022/11/07 03:39:15;;;;;;;7.32;4.05;;;;;;;9.12;100.00;100287.34;5009770;28;20669;-46
2022/11/07 03:41:40;;;;;;;7.88;4.22;;;;;;;9.10;100.00;100292.78;5009383;28;20185;-45
2022/11/07 03:44:06;;;;;;;7.28;3.70;;;;;;;9.14;100.00;100296.19;5011765;28;20191;-45
2022/11/07 03:46:31;;;;;;;4.38;3.70;;;;;;;9.10;100.00;100297.28;5009622;28;20218;-44
2022/11/07 03:48:57;;;;;;;6.53;3.78;;;;;;;9.11;100.00;100294.50;5009225;28;20246;-46
2022/11/07 03:51:22;;;;;;;6.70;4.03;;;;;;;9.07;100.00;100295.56;5009402;28;20649;-44
2022/11/07 03:53:48;;;;;;;7.72;4.30;;;;;;;9.13;100.00;100294.47;5008761;28;20673;-44
2022/11/07 03:56:13;;;;;;;7.07;3.90;;;;;;;9.14;100.00;100288.16;5008664;28;20283;-46
2022/11/07 03:58:39;;;;;;;9.05;4.00;;;;;;;9.12;100.00;100293.59;5008080;28;20238;-45
2022/11/07 04:01:04;;;;;;;4.40;3.60;;;;;;;9.09;100.00;100293.69;5009170;28;20247;-47
2022/11/07 04:03:30;;;;;;;5.15;3.40;;;;;;;9.08;100.00;100295.50;5007633;28;20618;-46
2022/11/07 04:05:56;;;;;;;8.70;4.00;;;;;;;9.16;100.00;100288.97;5008941;28;20208;-44
2022/11/07 04:08:23;;;;;;;4.82;3.63;;;;;;;9.20;100.00;100296.81;5008030;28;20188;-45
2022/11/07 04:10:48;;;;;;;6.38;3.67;;;;;;;9.23;100.00;100307.38;4997787;28;20208;-46
2022/11/07 04:18:42;;;;;;;9.27;3.97;;;;;;;9.30;100.00;100291.97;5005807;28;20189;-44
2022/11/07 04:21:08;;;;;;;5.30;3.60;;;;;;;9.34;100.00;100288.22;5009216;28;20181;-45
2022/11/07 04:23:33;;;;;;;9.45;3.63;;;;;;;9.27;100.00;100278.69;5007462;28;20546;-44
2022/11/07 04:28:43;;;;;;;6.03;3.47;;;;;;;9.32;100.00;100287.44;5006580;28;20236;-45
2022/11/07 04:31:08;;;;;;;8.45;3.70;;;;;;;9.35;100.00;100291.75;5008758;28;20250;-45
2022/11/07 04:33:34;;;;;;;6.28;3.75;;;;;;;9.37;100.00;100293.44;5008499;28;20184;-44
2022/11/07 04:35:59;;;;;;;6.65;3.47;;;;;;;9.40;100.00;100295.09;5008769;28;20230;-44
2022/11/07 04:38:24;;;;;;;6.60;3.55;;;;;;;9.45;100.00;100283.28;5006455;28;20168;-43
2022/11/07 04:40:57;;;;;;;5.55;3.55;;;;;;;9.47;100.00;100284.09;5008934;28;20177;-43
2022/11/07 04:43:24;;;;;;;7.80;4.10;;;;;;;9.54;100.00;100286.53;5007140;28;20594;-45
2022/11/07 04:45:50;;;;;;;9.32;3.75;;;;;;;9.57;100.00;100286.38;5008920;28;20639;-46
2022/11/07 04:48:16;;;;;;;6.50;3.20;;;;;;;9.57;100.00;100283.69;5008839;28;20267;-47
2022/11/07 04:50:42;;;;;;;9.98;3.58;;;;;;;9.60;100.00;100294.25;5009119;28;20216;-44
2022/11/07 04:53:12;;;;;;;3.60;2.97;;;;;;;9.59;100.00;100290.72;5008523;28;20744;-45
2022/11/07 04:55:37;;;;;;;8.27;3.53;;;;;;;9.61;100.00;100304.03;5008189;28;20196;-46
2022/11/07 04:58:03;;;;;;;8.43;3.40;;;;;;;9.66;100.00;100302.91;4990058;28;20526;-44
2022/11/07 05:00:28;;;;;;;11.98;3.47;;;;;;;9.60;100.00;100310.31;5008087;28;20180;-45
2022/11/07 05:02:53;;;;;;;6.78;3.38;;;;;;;9.64;100.00;100299.44;5008401;28;20216;-46
2022/11/07 05:05:19;;;;;;;10.52;3.63;;;;;;;9.70;100.00;100303.63;5006671;28;20638;-44
2022/11/07 05:07:45;;;;;;;5.32;2.85;;;;;;;9.72;100.00;100309.78;5011427;28;20712;-46
2022/11/07 05:10:26;;;;;;;10.40;3.75;;;;;;;9.69;100.00;100302.78;5008798;28;20323;-45
2022/11/07 05:12:52;;;;;;;8.05;3.38;;;;;;;9.70;100.00;100311.66;5011237;28;20181;-45
2022/11/07 05:15:18;;;;;;;5.47;3.20;;;;;;;9.73;100.00;100321.34;5011573;28;20562;-44
2022/11/07 05:17:44;;;;;;;7.78;3.53;;;;;;;9.83;100.00;100304.84;5010872;28;20185;-46
2022/11/07 05:20:26;;;;;;;4.97;3.13;;;;;;;9.84;100.00;100303.06;5011644;28;20316;-43
2022/11/07 05:25:35;;;;;;;8.65;3.97;;;;;;;9.82;100.00;100313.81;5010063;28;20244;-44
2022/11/07 05:28:01;;;;;;;7.00;2.80;;;;;;;9.80;100.00;100312.16;5009800;28;20649;-44
2022/11/07 05:30:26;;;;;;;5.57;2.88;;;;;;;9.74;100.00;100318.63;5009117;28;20192;-43
2022/11/07 05:32:52;;;;;;;7.47;3.08;;;;;;;9.72;100.00;100320.50;5011088;28;20197;-44
2022/11/07 05:35:17;;;;;;;6.93;2.72;;;;;;;9.66;100.00;100310.94;5008398;28;20548;-47
2022/11/07 05:37:42;;;;;;;9.43;2.95;;;;;;;9.60;100.00;100316.53;5010161;28;20187;-45
2022/11/07 05:40:08;;;;;;;6.43;3.53;;;;;;;9.58;100.00;100329.13;5011702;28;20662;-45
2022/11/07 05:42:34;;;;;;;5.80;2.80;;;;;;;9.56;100.00;100330.13;5011555;28;20184;-44
2022/11/07 05:44:59;;;;;;;9.48;2.78;;;;;;;9.53;100.00;100331.09;5008364;28;20224;-44
2022/11/07 05:47:24;;;;;;;6.75;2.97;;;;;;;9.57;100.00;100334.53;5011553;28;20192;-45
2022/11/07 05:49:50;;;;;;;11.05;3.10;;;;;;;9.53;100.00;100335.56;5010926;28;20180;-44
2022/11/07 05:52:15;;;;;;;6.97;2.85;;;;;;;9.48;100.00;100333.09;5011235;28;20201;-44
2022/11/07 05:54:41;;;;;;;7.60;2.78;;;;;;;9.44;100.00;100335.03;5011018;28;20269;-45
2022/11/07 05:57:06;;;;;;;8.25;3.05;;;;;;;9.39;100.00;100339.69;5011169;28;20258;-44
2022/11/07 05:59:31;;;;;;;8.57;3.45;;;;;;;9.39;100.00;100330.81;5011287;28;20183;-44
2022/11/07 06:01:57;;;;;;;11.20;3.00;;;;;;;9.38;100.00;100337.97;5010735;28;20180;-46
2022/11/07 06:04:22;;;;;;;7.03;2.90;;;;;;;9.40;100.00;100338.78;5010833;28;20272;-45
2022/11/07 06:06:48;;;;;;;4.80;2.60;;;;;;;9.46;100.00;100343.84;5011030;28;20302;-46
2022/11/07 06:09:13;;;;;;;6.97;2.53;;;;;;;9.44;100.00;100345.72;5011114;28;20172;-45
2022/11/07 06:11:39;;;;;;;8.52;2.65;;;;;;;9.46;100.00;100353.69;5011086;28;20669;-46
2022/11/07 06:14:04;;;;;;;10.50;3.28;;;;;;;9.42;100.00;100360.97;5010316;28;20176;-45
2022/11/07 06:16:30;;;;;;;7.88;2.85;;;;;;;9.43;100.00;100351.16;5010609;28;20204;-50
2022/11/07 06:18:55;;;;;;;8.57;3.05;;;;;;;9.47;100.00;100353.63;5010077;28;20705;-49
2022/11/07 06:21:20;;;;;;;10.35;3.00;;;;;;;9.41;100.00;100353.00;5010393;28;20210;-48
2022/11/07 06:23:46;;;;;;;4.35;2.38;;;;;;;9.47;100.00;100363.47;5009088;28;20550;-51
2022/11/07 06:26:12;;;;;;;8.18;2.90;;;;;;;9.49;100.00;100353.56;5009062;28;21039;-52
2022/11/07 06:28:37;;;;;;;7.70;2.80;;;;;;;9.48;100.00;100355.34;5008175;28;20228;-46
2022/11/07 06:31:04;;;;;;;4.95;2.80;;;;;;;9.45;100.00;100365.31;5010379;28;20216;-47
2022/11/07 06:33:30;;;;;;;9.32;3.63;;;;;;;9.48;100.00;100379.41;5009591;28;20184;-47
2022/11/07 06:36:03;;;;;;;7.55;2.45;;;;;;;9.48;100.00;100363.38;5010024;28;20211;-48
2022/11/07 06:38:29;;;;;;;8.43;2.53;;;;;;;9.55;100.00;100366.66;5010366;28;20180;-48
2022/11/07 06:40:54;;;;;;;10.40;3.10;;;;;;;9.53;100.00;100384.56;5010379;28;20184;-47
2022/11/07 06:43:20;;;;;;;5.82;2.72;;;;;;;9.53;100.00;100373.88;5008596;28;20192;-47
2022/11/07 06:45:46;;;;;;;6.75;2.30;;;;;;;9.56;100.00;100381.78;5009627;28;20283;-47
2022/11/07 06:48:12;;;;;;;9.98;2.40;;;;;;;9.63;100.00;100393.13;5010114;28;20165;-49
2022/11/07 06:50:38;;;;;;;8.45;2.70;;;;;;;9.66;100.00;100401.00;5009697;28;20559;-48
2022/11/07 06:53:08;;;;;;;9.95;2.15;;;;;;;9.79;100.00;100396.88;5008491;28;20192;-50
2022/11/07 06:55:35;;;;;;;9.98;2.60;;;;;;;9.82;100.00;100390.53;5007070;28;20241;-45
2022/11/07 06:58:01;;;;;;;7.25;2.40;;;;;;;9.70;100.00;100390.09;5006625;28;20202;-47
2022/11/07 07:00:32;;;;;;;7.68;2.55;;;;;;;9.68;100.00;100388.44;5008488;28;20552;-46
2022/11/07 07:02:57;;;;;;;8.85;2.80;;;;;;;9.72;100.00;100387.38;5005741;28;20184;-48
2022/11/07 07:05:23;;;;;;;8.85;2.55;;;;;;;9.71;100.00;100399.03;5009487;28;20219;-46
2022/11/07 07:07:48;;;;;;;6.72;2.35;;;;;;;9.80;100.00;100384.38;5009927;28;20188;-47
2022/11/07 07:10:14;;;;;;;9.02;2.45;;;;;;;9.78;100.00;100399.63;5009474;28;20192;-50
2022/11/07 07:12:40;;;;;;;6.32;2.15;;;;;;;9.76;100.00;100391.66;5009694;28;20254;-51
2022/11/07 07:15:07;;;;;;;7.60;2.50;;;;;;;9.77;100.00;100390.72;5008970;28;20200;-49
2022/11/07 07:17:32;;;;;;;6.63;2.55;;;;;;;9.78;100.00;100403.19;5009451;28;20184;-51
2022/11/07 07:19:57;;;;;;;7.30;2.30;;;;;;;9.81;100.00;100404.84;5008017;28;20184;-50
2022/11/07 07:22:23;;;;;;;8.43;3.15;;;;;;;9.85;100.00;100418.03;5009109;28;20181;-46
2022/11/07 07:24:51;;;;;;;6.65;2.40;;;;;;;9.91;100.00;100414.25;5023118;28;20205;-48
2022/11/07 07:27:19;;;;;;;5.53;2.17;;;;;;;9.97;100.00;100402.38;5008034;28;20224;-51
2022/11/07 07:29:45;;;;;;;9.80;2.55;;;;;;;10.02;100.00;100416.47;5009067;28;20176;-48
2022/11/07 07:32:11;;;;;;;8.18;2.30;;;;;;;10.04;100.00;100407.41;5009374;28;20258;-48
2022/11/07 07:34:36;;;;;;;8.70;2.25;;;;;;;10.11;100.00;100421.41;5008748;28;20208;-47
2022/11/07 07:37:01;;;;;;;11.27;2.55;;;;;;;10.19;100.00;100415.72;5009567;28;20268;-48
2022/11/07 07:39:27;;;;;;;5.45;1.98;;;;;;;10.20;100.00;100422.81;5009342;28;20223;-49
2022/11/07 07:41:52;;;;;;;7.88;2.08;;;;;;;10.20;100.00;100422.81;5015896;28;20649;-47
2022/11/07 07:44:20;;;;;;;10.40;2.25;;;;;;;10.18;100.00;100419.34;5007406;28;20177;-47
2022/11/07 07:46:45;;;;;;;12.80;2.80;;;;;;;10.15;100.00;100412.31;5007846;28;20340;-49
2022/11/07 07:49:11;;;;;;;13.63;3.20;;;;;;;10.17;100.00;100412.25;5009137;28;20177;-47
2022/11/07 07:51:36;;;;;;;11.27;2.70;;;;;;;10.16;100.00;100419.41;5009328;28;20435;-49
2022/11/07 07:54:02;;;;;;;7.95;2.40;;;;;;;10.19;100.00;100431.78;5006893;28;20204;-48
2022/11/07 07:56:27;;;;;;;10.18;2.90;;;;;;;10.17;100.00;100413.13;5009017;28;20299;-47
2022/11/07 07:58:53;;;;;;;12.45;2.42;;;;;;;10.21;100.00;100422.78;5008923;28;20204;-48
2022/11/07 08:01:18;;;;;;;8.05;2.42;;;;;;;10.19;100.00;100424.63;5008812;28;20191;-49
2022/11/07 08:03:44;;;;;;;8.02;2.42;;;;;;;10.25;100.00;100440.41;5007802;28;20330;-48
2022/11/07 08:06:10;;;;;;;9.23;2.42;;;;;;;10.29;100.00;100433.16;5005357;28;20380;-48
2022/11/07 08:08:35;;;;;;;10.80;2.95;;;;;;;10.34;100.00;100435.63;5008008;28;20636;-45
2022/11/07 08:11:03;;;;;;;7.95;2.13;;;;;;;10.34;100.00;100435.63;5003712;28;20200;-45
2022/11/07 08:13:29;;;;;;;10.85;2.65;;;;;;;10.36;100.00;100425.72;5008083;28;20548;-45
2022/11/07 08:15:55;;;;;;;9.90;2.45;;;;;;;10.46;100.00;100435.97;5007786;28;20212;-42
2022/11/07 08:18:21;;;;;;;7.05;2.53;;;;;;;10.51;100.00;100433.94;5008264;28;20208;-44
2022/11/07 08:20:52;;;;;;;10.43;2.42;;;;;;;10.55;100.00;100442.72;5008859;28;20194;-45
2022/11/07 08:23:18;;;;;;;14.43;3.42;;;;;;;10.49;100.00;100441.22;5002514;28;20301;-46
2022/11/07 08:25:55;;;;;;;10.32;2.30;;;;;;;10.53;100.00;100439.25;5008619;28;20287;-45
2022/11/07 08:28:23;;;;;;;9.88;2.78;;;;;;;10.70;100.00;100438.50;5023551;28;20268;-44
2022/11/07 08:30:59;;;;;;;13.80;2.42;;;;;;;10.98;100.00;100445.31;5007937;28;20204;-46
2022/11/07 08:33:25;;;;;;;10.27;2.90;;;;;;;11.07;100.00;100431.47;5005777;28;20187;-45
2022/11/07 08:36:00;;;;;;;10.68;2.80;;;;;;;11.00;100.00;100449.63;5000542;28;20192;-44
2022/11/07 08:38:29;;;;;;;13.05;2.75;;;;;;;10.91;100.00;100453.63;5008498;28;20187;-43
2022/11/07 08:40:55;;;;;;;9.27;2.78;;;;;;;11.02;100.00;100452.22;5008558;28;20180;-44
2022/11/07 08:43:21;;;;;;;10.02;2.80;;;;;;;10.91;100.00;100447.34;5010847;28;20180;-44
2022/11/07 08:45:48;;;;;;;11.85;2.65;;;;;;;10.83;100.00;100447.72;5012367;28;20219;-44
2022/11/07 08:48:15;;;;;;;12.25;2.83;;;;;;;10.87;100.00;100454.69;5012210;28;20242;-44
2022/11/07 08:50:41;;;;;;;11.15;2.97;;;;;;;11.08;100.00;100462.69;5012210;28;20179;-44
2022/11/07 08:53:07;;;;;;;7.22;2.15;;;;;;;11.13;100.00;100469.56;5012319;28;20196;-43
2022/11/07 08:55:32;;;;;;;11.35;2.50;;;;;;;11.19;100.00;100467.53;5012013;28;20291;-43
2022/11/07 08:58:04;;;;;;;10.27;2.53;;;;;;;11.00;100.00;100465.72;5012638;28;20319;-46
2022/11/07 09:00:30;;;;;;;11.48;2.35;;;;;;;11.01;100.00;100475.50;5010836;28;20217;-46
2022/11/07 09:02:59;;;;;;;12.38;2.45;;;;;;;10.97;100.00;100473.03;5009127;28;20275;-44
2022/11/07 09:05:24;;;;;;;11.65;2.72;;;;;;;10.98;100.00;100482.81;5011581;28;20377;-45
2022/11/07 09:07:49;;;;;;;12.45;2.90;;;;;;;11.00;100.00;100468.41;5012428;28;20176;-44
2022/11/07 09:10:15;;;;;;;6.30;2.20;;;;;;;11.06;100.00;100477.97;5012252;28;20206;-43
2022/11/07 09:12:48;;;;;;;11.35;2.63;;;;;;;11.16;100.00;100483.78;4994243;28;20642;-43
2022/11/07 09:15:14;;;;;;;9.18;2.83;;;;;;;11.15;100.00;100493.66;5010761;28;20216;-44
2022/11/07 09:17:40;;;;;;;6.47;2.45;;;;;;;11.13;100.00;100476.75;5011842;28;20180;-44
2022/11/07 09:20:06;;;;;;;8.63;2.35;;;;;;;11.12;100.00;100481.22;5012197;28;20177;-43
2022/11/07 09:22:32;;;;;;;7.40;2.60;;;;;;;11.23;100.00;100482.56;5011663;28;20287;-45
2022/11/07 09:24:57;;;;;;;7.57;2.45;;;;;;;11.26;100.00;100496.69;5011055;28;20292;-44
2022/11/07 09:27:23;;;;;;;11.40;2.90;;;;;;;11.21;100.00;100485.28;5011844;28;20200;-45
2022/11/07 09:29:48;;;;;;;8.90;2.55;;;;;;;11.22;100.00;100488.88;5015176;28;20262;-46
2022/11/07 09:32:14;;;;;;;10.68;3.00;;;;;;;11.25;100.00;100488.72;5011802;28;20231;-44
2022/11/07 09:34:39;;;;;;;10.50;2.33;;;;;;;11.24;100.00;100492.31;5011298;28;20283;-43
2022/11/07 09:37:05;;;;;;;11.15;2.67;;;;;;;11.37;100.00;100484.56;5011556;28;20765;-44
2022/11/07 09:39:30;;;;;;;11.05;2.63;;;;;;;11.51;100.00;100503.59;5013136;28;20208;-45
2022/11/07 09:42:10;;;;;;;6.80;2.22;;;;;;;11.49;100.00;100498.28;5011292;28;20184;-44
2022/11/07 09:45:00;;;;;;;9.32;2.55;;;;;;;11.55;100.00;100489.09;4997213;28;20209;-44
2022/11/07 09:47:36;;;;;;;8.55;2.47;;;;;;;11.67;99.71;100490.31;5011338;28;20204;-45
2022/11/07 09:50:36;;;;;;;10.52;2.83;;;;;;;11.61;99.12;100501.31;5011285;28;20278;-44
2022/11/07 09:53:17;;;;;;;8.75;2.78;;;;;;;11.48;98.94;100496.56;5006996;28;20216;-44
2022/11/07 09:55:58;;;;;;;8.90;2.38;;;;;;;11.45;99.16;100494.00;5009557;28;20498;-45
2022/11/07 09:58:29;;;;;;;8.30;2.67;;;;;;;11.72;99.28;100504.38;5011365;28;20203;-46
2022/11/07 10:01:00;;;;;;;11.20;2.60;;;;;;;11.92;98.70;100512.38;5009065;28;20173;-44
2022/11/07 10:03:25;;;;;;;9.23;2.60;;;;;;;12.03;98.46;100513.66;5010722;28;20188;-46
2022/11/07 10:06:14;;;;;;;8.45;2.85;;;;;;;12.03;97.60;100511.84;5011103;28;20218;-44
2022/11/07 10:08:49;;;;;;;9.85;2.28;;;;;;;12.03;97.09;100524.41;5010821;28;20533;-46
2022/11/07 10:11:24;;;;;;;10.13;2.78;;;;;;;12.08;96.95;100515.16;5011049;28;20211;-46
2022/11/07 10:13:58;;;;;;;7.25;2.45;;;;;;;11.81;96.75;100508.44;5008478;28;20544;-44
2022/11/07 10:16:31;;;;;;;8.23;2.40;;;;;;;11.94;96.57;100518.53;5010725;28;20188;-45
2022/11/07 10:19:22;;;;;;;6.72;2.20;;;;;;;11.97;96.69;100514.81;5010723;28;20180;-45
2022/11/07 10:22:22;;;;;;;11.00;2.25;;;;;;;12.01;96.40;100535.22;5009347;28;20273;-43
2022/11/07 10:25:05;;;;;;;11.23;2.25;;;;;;;11.99;96.19;100528.19;5008239;28;20414;-46
2022/11/07 10:27:31;;;;;;;4.68;1.63;;;;;;;12.27;96.14;100525.00;5003793;28;20559;-45
2022/11/07 10:29:58;;;;;;;9.57;2.28;;;;;;;12.30;95.49;100527.53;5015271;28;20185;-46
2022/11/07 10:32:51;;;;;;;8.25;2.28;;;;;;;12.08;95.38;100517.84;5009039;28;20197;-44
2022/11/07 10:35:37;;;;;;;9.73;2.55;;;;;;;12.22;95.59;100527.03;5010353;28;20732;-44
2022/11/07 10:38:16;;;;;;;6.63;2.15;;;;;;;12.12;95.23;100534.69;5010514;28;20180;-45
2022/11/07 10:40:43;;;;;;;7.70;2.83;;;;;;;12.27;95.31;100533.06;5009309;28;20246;-45
2022/11/07 10:43:17;;;;;;;8.95;2.10;;;;;;;12.23;95.09;100539.53;5009310;28;20185;-44
2022/11/07 10:45:43;;;;;;;8.50;1.85;;;;;;;12.15;94.83;100539.88;5023968;28;20687;-46
2022/11/07 10:48:12;;;;;;;8.85;2.20;;;;;;;12.14;94.76;100539.03;5009249;28;20345;-44
2022/11/07 10:50:38;;;;;;;8.48;2.00;;;;;;;12.13;94.43;100547.16;5009710;28;20228;-46
2022/11/07 10:53:08;;;;;;;8.73;2.67;;;;;;;12.06;94.19;100535.84;5008955;28;20235;-46
2022/11/07 10:55:45;;;;;;;6.93;2.33;;;;;;;12.21;94.14;100538.72;5009849;28;20200;-46
2022/11/07 10:58:29;;;;;;;7.32;1.70;;;;;;;12.21;93.92;100538.72;5006860;28;20669;-47
2022/11/07 11:01:06;;;;;;;9.00;2.45;;;;;;;12.24;94.03;100536.75;5007644;28;20257;-47
2022/11/07 11:03:40;;;;;;;6.40;1.70;;;;;;;12.21;93.93;100546.78;5009603;28;20669;-46
2022/11/07 11:06:21;;;;;;;8.30;1.98;;;;;;;12.27;93.96;100543.81;5008872;28;20725;-45
2022/11/07 11:08:49;;;;;;;7.30;1.75;;;;;;;12.25;93.89;100541.19;5009721;28;20185;-45
2022/11/07 11:11:25;;;;;;;7.93;1.98;;;;;;;12.14;94.36;100541.72;5009859;28;20254;-44
2022/11/07 11:14:01;;;;;;;7.35;2.30;;;;;;;12.20;94.65;100545.94;5009398;28;20635;-45
2022/11/07 11:16:32;;;;;;;9.85;2.30;;;;;;;12.18;94.68;100538.88;5008919;28;20199;-46
2022/11/07 11:19:00;;;;;;;6.28;1.60;;;;;;;12.18;94.35;100545.13;5007362;28;20181;-45
2022/11/07 11:21:25;;;;;;;7.57;2.03;;;;;;;12.25;94.39;100543.88;5009454;28;20169;-45
2022/11/07 11:23:53;;;;;;;4.43;1.65;;;;;;;12.31;94.06;100530.13;5007808;28;20259;-45
2022/11/07 11:26:36;;;;;;;6.97;1.60;;;;;;;12.26;93.71;100552.78;5009517;28;20197;-45
2022/11/07 11:29:08;;;;;;;6.88;2.35;;;;;;;12.15;93.88;100534.53;5009677;28;20230;-46
2022/11/07 11:31:55;;;;;;;6.60;2.05;;;;;;;12.03;94.00;100552.13;5009790;28;20205;-43
2022/11/07 11:34:25;;;;;;;5.95;2.00;;;;;;;12.05;94.01;100534.13;5007289;28;20208;-45
2022/11/07 11:37:21;;;;;;;8.60;2.00;;;;;;;12.06;94.13;100538.53;5009742;28;20187;-46
2022/11/07 11:40:05;;;;;;;9.18;2.10;;;;;;;12.03;94.23;100535.16;5008771;28;20653;-44
2022/11/07 11:42:48;;;;;;;7.15;2.15;;;;;;;12.11;94.51;100539.19;5009384;28;20174;-46